sensor_id;sensor_type;location;lat;lon;timestamp;pressure;altitude;pressure_sealevel;temperature;humidity
43934;BME280;59081;42.706;23.306;2023-03-26T00:02:13;94574.72;;;8.08;78.56
43934;BME280;59081;42.706;23.306;2023-03-26T00:04:39;94746.00;;;9.06;79.15
43934;BME280;59081;42.706;23.306;2023-03-26T00:07:12;94680.47;;;8.66;78.55
43934;BME280;59081;42.706;23.306;2023-03-26T00:09:37;94654.78;;;8.60;78.11
43934;BME280;59081;42.706;23.306;2023-03-26T00:12:03;94547.13;;;7.86;78.26
43934;BME280;59081;42.706;23.306;2023-03-26T00:14:29;94663.25;;;8.79;77.87
43934;BME280;59081;42.706;23.306;2023-03-26T00:16:54;94572.56;;;8.28;77.57
43934;BME280;59081;42.706;23.306;2023-03-26T00:19:20;94593.91;;;8.49;77.31
43934;BME280;59081;42.706;23.306;2023-03-26T00:21:49;94594.38;;;8.48;77.22
43934;BME280;59081;42.706;23.306;2023-03-26T00:24:15;94602.94;;;8.62;77.22
43934;BME280;59081;42.706;23.306;2023-03-26T00:26:42;94620.97;;;8.63;77.49
43934;BME280;59081;42.706;23.306;2023-03-26T00:29:08;94569.41;;;8.29;77.72
43934;BME280;59081;42.706;23.306;2023-03-26T00:31:34;94661.38;;;8.76;78.27
43934;BME280;59081;42.706;23.306;2023-03-26T00:34:11;94581.66;;;8.25;78.64
43934;BME280;59081;42.706;23.306;2023-03-26T00:36:37;94590.03;;;8.34;78.65
43934;BME280;59081;42.706;23.306;2023-03-26T00:39:06;94674.34;;;9.00;78.46
43934;BME280;59081;42.706;23.306;2023-03-26T00:41:32;94584.75;;;8.27;78.00
43934;BME280;59081;42.706;23.306;2023-03-26T00:44:01;94598.19;;;8.37;78.13
43934;BME280;59081;42.706;23.306;2023-03-26T00:46:28;94706.69;;;9.09;78.38
43934;BME280;59081;42.706;23.306;2023-03-26T00:48:57;94622.91;;;8.50;78.03
43934;BME280;59081;42.706;23.306;2023-03-26T00:51:24;94488.84;;;7.69;78.13
43934;BME280;59081;42.706;23.306;2023-03-26T00:53:53;94677.31;;;8.81;78.45
43934;BME280;59081;42.706;23.306;2023-03-26T00:56:22;94628.75;;;8.65;78.31
43934;BME280;59081;42.706;23.306;2023-03-26T00:58:50;94594.00;;;8.33;77.74
43934;BME280;59081;42.706;23.306;2023-03-26T01:01:22;94535.66;;;8.03;77.26
43934;BME280;59081;42.706;23.306;2023-03-26T01:04:16;94670.19;;;8.96;76.39
43934;BME280;59081;42.706;23.306;2023-03-26T01:06:48;94644.13;;;8.75;76.33
43934;BME280;59081;42.706;23.306;2023-03-26T01:09:17;94628.84;;;8.61;76.27
43934;BME280;59081;42.706;23.306;2023-03-26T01:11:44;94548.69;;;7.99;76.10
43934;BME280;59081;42.706;23.306;2023-03-26T01:14:18;94543.75;;;7.94;76.10
43934;BME280;59081;42.706;23.306;2023-03-26T01:16:53;94668.41;;;8.77;76.44
43934;BME280;59081;42.706;23.306;2023-03-26T01:22:14;94575.94;;;8.19;76.53
43934;BME280;59081;42.706;23.306;2023-03-26T01:24:40;94719.66;;;9.08;76.74
43934;BME280;59081;42.706;23.306;2023-03-26T01:30:19;94762.41;;;9.22;77.70
43934;BME280;59081;42.706;23.306;2023-03-26T01:33:29;94775.69;;;9.11;77.81
43934;BME280;59081;42.706;23.306;2023-03-26T01:36:10;94657.28;;;8.26;78.21
43934;BME280;59081;42.706;23.306;2023-03-26T01:39:05;94765.72;;;9.17;78.20
43934;BME280;59081;42.706;23.306;2023-03-26T01:41:47;94772.88;;;9.27;77.78
43934;BME280;59081;42.706;23.306;2023-03-26T01:46:52;94681.44;;;8.60;78.62
43934;BME280;59081;42.706;23.306;2023-03-26T01:49:30;94644.69;;;8.28;78.64
43934;BME280;59081;42.706;23.306;2023-03-26T01:51:56;94566.66;;;7.88;78.60
43934;BME280;59081;42.706;23.306;2023-03-26T01:54:25;94583.72;;;8.08;78.22
43934;BME280;59081;42.706;23.306;2023-03-26T02:02:30;94730.00;;;9.17;77.84
43934;BME280;59081;42.706;23.306;2023-03-26T02:05:14;94774.19;;;9.35;78.74
43934;BME280;59081;42.706;23.306;2023-03-26T02:07:51;94610.78;;;8.35;78.58
43934;BME280;59081;42.706;23.306;2023-03-26T02:10:35;94633.72;;;8.28;80.18
43934;BME280;59081;42.706;23.306;2023-03-26T02:13:03;94725.41;;;8.72;80.58
43934;BME280;59081;42.706;23.306;2023-03-26T02:15:30;94574.50;;;7.73;80.71
43934;BME280;59081;42.706;23.306;2023-03-26T02:17:58;94589.88;;;7.83;80.56
43934;BME280;59081;42.706;23.306;2023-03-26T02:20:26;94678.78;;;8.44;nan
43934;BME280;59081;42.706;23.306;2023-03-26T02:22:56;94616.47;;;7.99;80.57
43934;BME280;59081;42.706;23.306;2023-03-26T02:25:25;94665.50;;;8.13;81.43
43934;BME280;59081;42.706;23.306;2023-03-26T02:27:51;94656.41;;;8.00;81.70
43934;BME280;59081;42.706;23.306;2023-03-26T02:30:21;94544.44;;;7.41;82.05
43934;BME280;59081;42.706;23.306;2023-03-26T02:32:50;94638.81;;;7.85;82.14
43934;BME280;59081;42.706;23.306;2023-03-26T02:35:20;94726.56;;;8.46;82.97
43934;BME280;59081;42.706;23.306;2023-03-26T02:37:49;94769.00;;;8.70;83.13
43934;BME280;59081;42.706;23.306;2023-03-26T02:40:17;94709.59;;;8.35;83.11
43934;BME280;59081;42.706;23.306;2023-03-26T02:42:46;94792.25;;;8.95;82.68
43934;BME280;59081;42.706;23.306;2023-03-26T02:45:15;94803.59;;;8.97;82.46
43934;BME280;59081;42.706;23.306;2023-03-26T02:47:40;94663.59;;;8.10;82.32
43934;BME280;59081;42.706;23.306;2023-03-26T02:50:14;94807.09;;;8.97;82.88
43934;BME280;59081;42.706;23.306;2023-03-26T02:52:58;94742.81;;;8.53;83.05
43934;BME280;59081;42.706;23.306;2023-03-26T02:55:32;94680.25;;;8.03;83.21
43934;BME280;59081;42.706;23.306;2023-03-26T02:58:01;94821.69;;;8.82;84.17
43934;BME280;59081;42.706;23.306;2023-03-26T03:00:27;94769.41;;;8.56;83.76
43934;BME280;59081;42.706;23.306;2023-03-26T03:02:53;94617.88;;;7.46;83.74
43934;BME280;59081;42.706;23.306;2023-03-26T03:05:22;94565.88;;;6.97;84.55
43934;BME280;59081;42.706;23.306;2023-03-26T03:07:58;94643.31;;;7.62;83.88
43934;BME280;59081;42.706;23.306;2023-03-26T03:10:30;94759.34;;;8.21;84.25
43934;BME280;59081;42.706;23.306;2023-03-26T03:12:58;94643.00;;;7.28;84.34
43934;BME280;59081;42.706;23.306;2023-03-26T03:15:30;94783.50;;;8.26;84.68
43934;BME280;59081;42.706;23.306;2023-03-26T03:17:58;94681.44;;;7.57;84.57
43934;BME280;59081;42.706;23.306;2023-03-26T03:20:24;94744.09;;;8.03;84.43
43934;BME280;59081;42.706;23.306;2023-03-26T03:22:52;94837.94;;;8.60;83.97
43934;BME280;59081;42.706;23.306;2023-03-26T03:25:20;94726.03;;;7.90;83.78
43934;BME280;59081;42.706;23.306;2023-03-26T03:27:48;94724.59;;;7.85;83.54
43934;BME280;59081;42.706;23.306;2023-03-26T03:30:14;94843.38;;;8.47;83.59
43934;BME280;59081;42.706;23.306;2023-03-26T03:32:51;94770.50;;;7.97;83.83
43934;BME280;59081;42.706;23.306;2023-03-26T03:35:25;94643.53;;;7.07;83.98
43934;BME280;59081;42.706;23.306;2023-03-26T03:38:08;94740.88;;;7.76;83.62
43934;BME280;59081;42.706;23.306;2023-03-26T03:40:34;94833.09;;;8.35;83.80
43934;BME280;59081;42.706;23.306;2023-03-26T03:43:09;94631.97;;;7.15;83.73
43934;BME280;59081;42.706;23.306;2023-03-26T03:45:37;94657.66;;;7.38;83.20
43934;BME280;59081;42.706;23.306;2023-03-26T03:48:05;94730.41;;;7.87;83.12
43934;BME280;59081;42.706;23.306;2023-03-26T03:50:31;94659.09;;;7.26;83.36
43934;BME280;59081;42.706;23.306;2023-03-26T03:52:57;94839.34;;;8.35;83.88
43934;BME280;59081;42.706;23.306;2023-03-26T03:55:24;94721.72;;;7.60;83.65
43934;BME280;59081;42.706;23.306;2023-03-26T03:57:52;94612.97;;;6.92;83.54
43934;BME280;59081;42.706;23.306;2023-03-26T04:00:18;94655.00;;;7.18;83.95
43934;BME280;59081;42.706;23.306;2023-03-26T04:02:44;94825.38;;;8.14;84.68
43934;BME280;59081;42.706;23.306;2023-03-26T04:05:11;94713.03;;;7.29;85.36
43934;BME280;59081;42.706;23.306;2023-03-26T04:07:40;94748.06;;;7.54;85.80
43934;BME280;59081;42.706;23.306;2023-03-26T04:10:08;94665.84;;;6.89;85.78
43934;BME280;59081;42.706;23.306;2023-03-26T04:12:34;94760.16;;;7.56;85.62
43934;BME280;59081;42.706;23.306;2023-03-26T04:15:06;94666.41;;;6.80;86.16
43934;BME280;59081;42.706;23.306;2023-03-26T04:17:35;94717.97;;;7.02;86.89
43934;BME280;59081;42.706;23.306;2023-03-26T04:20:07;94861.28;;;8.03;87.26
43934;BME280;59081;42.706;23.306;2023-03-26T04:22:33;94761.00;;;7.53;87.09
43934;BME280;59081;42.706;23.306;2023-03-26T04:25:00;94768.19;;;7.47;86.29
43934;BME280;59081;42.706;23.306;2023-03-26T04:27:28;94875.97;;;8.13;86.61
43934;BME280;59081;42.706;23.306;2023-03-26T04:29:57;94762.25;;;7.32;86.50
43934;BME280;59081;42.706;23.306;2023-03-26T04:32:25;94747.84;;;7.12;86.01
43934;BME280;59081;42.706;23.306;2023-03-26T04:34:57;94844.88;;;7.83;85.85
43934;BME280;59081;42.706;23.306;2023-03-26T04:37:31;94860.69;;;7.95;85.28
43934;BME280;59081;42.706;23.306;2023-03-26T04:40:01;94917.19;;;8.25;85.28
43934;BME280;59081;42.706;23.306;2023-03-26T04:42:35;94834.19;;;7.73;84.46
43934;BME280;59081;42.706;23.306;2023-03-26T04:45:07;94825.53;;;7.74;84.12
43934;BME280;59081;42.706;23.306;2023-03-26T04:47:32;94841.31;;;8.19;87.51
43934;BME280;59081;42.706;23.306;2023-03-26T04:50:04;94854.66;;;8.65;91.46
43934;BME280;59081;42.706;23.306;2023-03-26T04:52:31;94907.19;;;9.25;81.96
43934;BME280;59081;42.706;23.306;2023-03-26T04:54:56;94820.44;;;8.54;79.95
43934;BME280;59081;42.706;23.306;2023-03-26T04:57:37;94883.09;;;8.88;79.43
43934;BME280;59081;42.706;23.306;2023-03-26T05:00:05;94834.19;;;8.37;79.29
43934;BME280;59081;42.706;23.306;2023-03-26T05:02:41;94864.88;;;8.49;79.97
43934;BME280;59081;42.706;23.306;2023-03-26T05:05:07;94751.22;;;7.85;79.49
43934;BME280;59081;42.706;23.306;2023-03-26T05:07:33;94765.47;;;7.96;79.07
43934;BME280;59081;42.706;23.306;2023-03-26T05:09:58;94942.97;;;9.09;78.97
43934;BME280;59081;42.706;23.306;2023-03-26T05:12:27;94838.13;;;8.20;78.04
43934;BME280;59081;42.706;23.306;2023-03-26T05:14:53;94830.53;;;8.12;78.27
43934;BME280;59081;42.706;23.306;2023-03-26T05:17:18;94847.91;;;8.21;77.91
43934;BME280;59081;42.706;23.306;2023-03-26T05:19:45;94804.03;;;7.73;78.77
43934;BME280;59081;42.706;23.306;2023-03-26T05:22:11;94805.22;;;7.72;79.14
43934;BME280;59081;42.706;23.306;2023-03-26T05:24:37;94878.34;;;8.11;79.32
43934;BME280;59081;42.706;23.306;2023-03-26T05:27:02;94817.66;;;7.76;79.53
43934;BME280;59081;42.706;23.306;2023-03-26T05:29:28;94779.28;;;7.60;79.67
43934;BME280;59081;42.706;23.306;2023-03-26T05:31:53;94821.34;;;7.86;79.95
43934;BME280;59081;42.706;23.306;2023-03-26T05:34:19;94849.81;;;8.08;80.37
43934;BME280;59081;42.706;23.306;2023-03-26T05:36:48;94954.09;;;8.73;80.91
43934;BME280;59081;42.706;23.306;2023-03-26T05:39:14;94811.31;;;7.79;81.22
43934;BME280;59081;42.706;23.306;2023-03-26T05:41:40;94873.44;;;8.18;80.23
43934;BME280;59081;42.706;23.306;2023-03-26T05:44:05;94960.19;;;8.81;80.82
43934;BME280;59081;42.706;23.306;2023-03-26T05:46:31;94833.25;;;8.12;80.00
43934;BME280;59081;42.706;23.306;2023-03-26T05:48:57;94852.81;;;8.30;79.01
43934;BME280;59081;42.706;23.306;2023-03-26T05:51:22;94834.72;;;8.32;78.01
43934;BME280;59081;42.706;23.306;2023-03-26T05:53:48;94799.16;;;8.13;78.11
43934;BME280;59081;42.706;23.306;2023-03-26T05:56:13;94857.41;;;8.49;77.16
43934;BME280;59081;42.706;23.306;2023-03-26T05:58:39;94928.75;;;8.98;77.08
43934;BME280;59081;42.706;23.306;2023-03-26T06:01:12;94865.81;;;8.58;77.44
43934;BME280;59081;42.706;23.306;2023-03-26T06:03:43;94854.44;;;8.44;77.71
43934;BME280;59081;42.706;23.306;2023-03-26T06:06:13;94965.78;;;9.22;77.00
43934;BME280;59081;42.706;23.306;2023-03-26T06:08:44;94864.00;;;8.68;77.28
43934;BME280;59081;42.706;23.306;2023-03-26T06:11:17;94860.78;;;8.86;75.66
43934;BME280;59081;42.706;23.306;2023-03-26T06:13:43;94936.44;;;9.03;74.82
43934;BME280;59081;42.706;23.306;2023-03-26T06:16:10;94854.28;;;8.80;75.10
43934;BME280;59081;42.706;23.306;2023-03-26T06:18:37;94758.81;;;8.26;73.41
43934;BME280;59081;42.706;23.306;2023-03-26T06:21:03;94844.94;;;8.77;73.51
43934;BME280;59081;42.706;23.306;2023-03-26T06:23:30;94894.22;;;9.26;73.66
43934;BME280;59081;42.706;23.306;2023-03-26T06:25:56;94957.03;;;9.69;73.23
43934;BME280;59081;42.706;23.306;2023-03-26T06:28:21;94855.63;;;9.17;73.13
43934;BME280;59081;42.706;23.306;2023-03-26T06:30:48;94869.41;;;9.29;72.21
43934;BME280;59081;42.706;23.306;2023-03-26T06:33:14;94867.97;;;9.37;71.79
43934;BME280;59081;42.706;23.306;2023-03-26T06:35:40;94822.00;;;9.25;71.34
43934;BME280;59081;42.706;23.306;2023-03-26T06:38:07;94826.78;;;9.50;70.20
43934;BME280;59081;42.706;23.306;2023-03-26T06:40:33;94863.00;;;9.87;69.44
43934;BME280;59081;42.706;23.306;2023-03-26T06:42:58;94809.03;;;9.38;68.61
43934;BME280;59081;42.706;23.306;2023-03-26T06:45:26;94875.31;;;9.82;68.24
43934;BME280;59081;42.706;23.306;2023-03-26T06:47:51;94835.81;;;9.63;67.89
43934;BME280;59081;42.706;23.306;2023-03-26T06:50:17;94874.97;;;9.80;67.25
43934;BME280;59081;42.706;23.306;2023-03-26T06:52:42;94843.38;;;9.47;67.76
43934;BME280;59081;42.706;23.306;2023-03-26T06:55:08;94869.69;;;9.73;67.55
43934;BME280;59081;42.706;23.306;2023-03-26T06:57:35;94930.00;;;9.93;67.91
43934;BME280;59081;42.706;23.306;2023-03-26T07:00:00;94981.25;;;10.41;67.51
43934;BME280;59081;42.706;23.306;2023-03-26T07:02:26;94983.47;;;10.46;66.55
43934;BME280;59081;42.706;23.306;2023-03-26T07:04:51;94859.88;;;9.59;65.50
43934;BME280;59081;42.706;23.306;2023-03-26T07:07:17;94882.34;;;9.83;65.40
43934;BME280;59081;42.706;23.306;2023-03-26T07:09:46;94896.00;;;9.87;65.34
43934;BME280;59081;42.706;23.306;2023-03-26T07:12:12;94954.41;;;10.20;65.87
43934;BME280;59081;42.706;23.306;2023-03-26T07:14:38;94856.81;;;9.95;65.02
43934;BME280;59081;42.706;23.306;2023-03-26T07:17:03;94908.13;;;10.40;64.28
43934;BME280;59081;42.706;23.306;2023-03-26T07:19:28;94872.31;;;10.40;63.38
43934;BME280;59081;42.706;23.306;2023-03-26T07:21:54;94972.50;;;11.28;62.17
43934;BME280;59081;42.706;23.306;2023-03-26T07:24:20;94866.69;;;10.56;61.01
43934;BME280;59081;42.706;23.306;2023-03-26T07:29:45;94856.88;;;10.55;59.43
43934;BME280;59081;42.706;23.306;2023-03-26T07:40:11;94860.41;;;11.12;58.54
43934;BME280;59081;42.706;23.306;2023-03-26T07:45:32;94853.69;;;11.13;57.87
43934;BME280;59081;42.706;23.306;2023-03-26T07:48:02;94883.59;;;11.36;57.85
43934;BME280;59081;42.706;23.306;2023-03-26T07:50:28;94807.44;;;11.08;57.67
43934;BME280;59081;42.706;23.306;2023-03-26T07:52:54;94938.31;;;11.60;59.37
43934;BME280;59081;42.706;23.306;2023-03-26T07:55:20;94952.75;;;12.16;58.84
43934;BME280;59081;42.706;23.306;2023-03-26T08:01:27;94745.06;;;11.32;55.73
43934;BME280;59081;42.706;23.306;2023-03-26T08:09:15;94906.94;;;12.77;53.40
43934;BME280;59081;42.706;23.306;2023-03-26T08:11:51;94811.06;;;12.47;51.81
43934;BME280;59081;42.706;23.306;2023-03-26T08:19:45;94788.66;;;12.36;47.81
43934;BME280;59081;42.706;23.306;2023-03-26T08:22:23;94941.13;;;13.47;47.57
43934;BME280;59081;42.706;23.306;2023-03-26T08:25:17;94856.56;;;13.01;47.53
43934;BME280;59081;42.706;23.306;2023-03-26T08:30:45;94766.88;;;12.29;46.39
43934;BME280;59081;42.706;23.306;2023-03-26T08:33:17;94953.25;;;13.77;46.61
43934;BME280;59081;42.706;23.306;2023-03-26T08:35:44;94950.03;;;13.61;46.50
43934;BME280;59081;42.706;23.306;2023-03-26T08:38:11;94824.31;;;12.61;47.60
43934;BME280;59081;42.706;23.306;2023-03-26T08:41:51;94939.56;;;13.74;46.46
43934;BME280;59081;42.706;23.306;2023-03-26T08:44:24;94922.06;;;13.68;45.81
43934;BME280;59081;42.706;23.306;2023-03-26T08:54:46;94936.59;;;14.05;44.91
43934;BME280;59081;42.706;23.306;2023-03-26T09:00:15;94942.41;;;14.67;43.33
43934;BME280;59081;42.706;23.306;2023-03-26T09:14:27;94937.53;;;15.10;42.03
43934;BME280;59081;42.706;23.306;2023-03-26T09:17:42;94942.97;;;15.28;40.67
43934;BME280;59081;42.706;23.306;2023-03-26T09:25:55;94917.25;;;15.04;39.24
43934;BME280;59081;42.706;23.306;2023-03-26T09:39:45;94920.50;;;16.38;37.87
43934;BME280;59081;42.706;23.306;2023-03-26T09:50:25;94842.78;;;16.44;34.73
43934;BME280;59081;42.706;23.306;2023-03-26T09:56:01;94898.50;;;15.90;36.36
43934;BME280;59081;42.706;23.306;2023-03-26T10:12:45;94751.00;;;16.23;33.48
43934;BME280;59081;42.706;23.306;2023-03-26T10:15:39;94828.91;;;16.64;33.35
43934;BME280;59081;42.706;23.306;2023-03-26T10:24:06;94740.97;;;15.32;34.07
43934;BME280;59081;42.706;23.306;2023-03-26T10:26:45;94847.09;;;16.45;34.26
43934;BME280;59081;42.706;23.306;2023-03-26T10:32:29;94834.09;;;16.21;33.70
43934;BME280;59081;42.706;23.306;2023-03-26T10:40:50;94752.34;;;17.09;31.98
43934;BME280;59081;42.706;23.306;2023-03-26T10:43:35;94731.31;;;17.34;30.70
43934;BME280;59081;42.706;23.306;2023-03-26T10:51:51;94817.28;;;17.72;30.67
43934;BME280;59081;42.706;23.306;2023-03-26T10:56:54;94732.19;;;17.20;29.76
43934;BME280;59081;42.706;23.306;2023-03-26T10:59:20;94803.69;;;17.80;28.28
43934;BME280;59081;42.706;23.306;2023-03-26T11:12:42;94796.78;;;18.07;27.71
43934;BME280;59081;42.706;23.306;2023-03-26T11:17:54;94784.13;;;18.86;27.04
43934;BME280;59081;42.706;23.306;2023-03-26T11:20:44;94787.78;;;19.14;26.64
43934;BME280;59081;42.706;23.306;2023-03-26T11:34:01;94716.72;;;18.56;26.09
43934;BME280;59081;42.706;23.306;2023-03-26T11:36:33;94691.47;;;18.22;25.67
43934;BME280;59081;42.706;23.306;2023-03-26T11:39:03;94673.84;;;17.94;26.63
43934;BME280;59081;42.706;23.306;2023-03-26T11:41:30;94640.44;;;17.62;26.37
43934;BME280;59081;42.706;23.306;2023-03-26T11:44:02;94742.19;;;18.69;26.03
43934;BME280;59081;42.706;23.306;2023-03-26T11:46:31;94747.06;;;18.85;25.68
43934;BME280;59081;42.706;23.306;2023-03-26T11:49:03;94648.53;;;18.51;25.56
43934;BME280;59081;42.706;23.306;2023-03-26T11:51:40;94736.38;;;19.71;24.96
43934;BME280;59081;42.706;23.306;2023-03-26T11:54:10;94675.53;;;18.93;25.04
43934;BME280;59081;42.706;23.306;2023-03-26T11:56:43;94708.28;;;18.33;25.88
43934;BME280;59081;42.706;23.306;2023-03-26T11:59:18;94690.38;;;18.57;25.98
43934;BME280;59081;42.706;23.306;2023-03-26T12:01:55;94580.13;;;18.67;25.14
43934;BME280;59081;42.706;23.306;2023-03-26T12:04:35;94646.47;;;19.56;24.41
43934;BME280;59081;42.706;23.306;2023-03-26T12:07:14;94589.28;;;19.62;23.23
43934;BME280;59081;42.706;23.306;2023-03-26T12:10:08;94706.38;;;19.60;23.78
43934;BME280;59081;42.706;23.306;2023-03-26T12:12:46;94634.50;;;19.50;22.97
43934;BME280;59081;42.706;23.306;2023-03-26T12:15:17;94625.63;;;19.57;22.93
43934;BME280;59081;42.706;23.306;2023-03-26T12:17:43;94693.88;;;19.17;23.25
43934;BME280;59081;42.706;23.306;2023-03-26T12:22:51;94681.84;;;20.50;22.33
43934;BME280;59081;42.706;23.306;2023-03-26T12:25:19;94597.06;;;20.08;22.50
43934;BME280;59081;42.706;23.306;2023-03-26T12:30:34;94668.78;;;21.16;21.10
43934;BME280;59081;42.706;23.306;2023-03-26T12:33:04;94666.34;;;21.01;20.71
43934;BME280;59081;42.706;23.306;2023-03-26T12:35:32;94656.03;;;19.94;21.87
43934;BME280;59081;42.706;23.306;2023-03-26T12:38:31;94649.97;;;20.70;21.66
43934;BME280;59081;42.706;23.306;2023-03-26T12:43:39;94645.28;;;20.89;19.76
43934;BME280;59081;42.706;23.306;2023-03-26T12:46:25;94634.59;;;20.93;19.71
43934;BME280;59081;42.706;23.306;2023-03-26T12:48:56;94641.09;;;21.12;20.14
43934;BME280;59081;42.706;23.306;2023-03-26T13:10:23;94622.13;;;21.89;17.55
43934;BME280;59081;42.706;23.306;2023-03-26T13:16:02;94508.91;;;20.02;17.08
43934;BME280;59081;42.706;23.306;2023-03-26T13:18:47;94536.16;;;21.13;16.23
43934;BME280;59081;42.706;23.306;2023-03-26T13:21:30;94613.00;;;21.59;16.78
43934;BME280;59081;42.706;23.306;2023-03-26T13:26:40;94607.72;;;22.29;16.11
43934;BME280;59081;42.706;23.306;2023-03-26T13:48:10;94543.00;;;20.88;17.99
43934;BME280;59081;42.706;23.306;2023-03-26T13:50:40;94431.72;;;19.88;18.62
43934;BME280;59081;42.706;23.306;2023-03-26T13:53:20;94495.84;;;20.15;18.04
43934;BME280;59081;42.706;23.306;2023-03-26T13:55:53;94499.31;;;20.38;18.28
43934;BME280;59081;42.706;23.306;2023-03-26T13:58:33;94588.94;;;21.39;18.10
43934;BME280;59081;42.706;23.306;2023-03-26T14:01:26;94550.50;;;20.22;17.07
43934;BME280;59081;42.706;23.306;2023-03-26T14:04:32;94595.94;;;20.86;17.31
43934;BME280;59081;42.706;23.306;2023-03-26T14:07:02;94600.03;;;21.26;17.02
43934;BME280;59081;42.706;23.306;2023-03-26T14:09:36;94446.59;;;20.07;17.66
43934;BME280;59081;42.706;23.306;2023-03-26T14:15:00;94506.19;;;21.08;16.96
43934;BME280;59081;42.706;23.306;2023-03-26T14:23:24;94542.56;;;21.68;17.73
43934;BME280;59081;42.706;23.306;2023-03-26T14:54:08;94558.66;;;20.67;18.49
43934;BME280;59081;42.706;23.306;2023-03-26T15:20:03;94562.97;;;18.20;20.77
43934;BME280;59081;42.706;23.306;2023-03-26T15:22:58;94566.75;;;18.12;20.92
43934;BME280;59081;42.706;23.306;2023-03-26T15:31:45;94564.88;;;17.49;22.95
43934;BME280;59081;42.706;23.306;2023-03-26T15:43:10;94489.38;;;16.62;24.28
43934;BME280;59081;42.706;23.306;2023-03-26T15:56:42;94573.78;;;16.59;25.23
43934;BME280;59081;42.706;23.306;2023-03-26T15:59:23;94573.03;;;16.58;25.57
43934;BME280;59081;42.706;23.306;2023-03-26T16:07:09;94564.91;;;16.55;25.94
43934;BME280;59081;42.706;23.306;2023-03-26T16:10:02;94567.88;;;16.51;26.39
43934;BME280;59081;42.706;23.306;2023-03-26T16:12:45;94465.72;;;15.69;26.28
43934;BME280;59081;42.706;23.306;2023-03-26T16:15:19;94580.34;;;16.35;26.12
43934;BME280;59081;42.706;23.306;2023-03-26T16:20:49;94570.72;;;16.11;26.49
43934;BME280;59081;42.706;23.306;2023-03-26T16:23:56;94516.13;;;15.61;27.00
43934;BME280;59081;42.706;23.306;2023-03-26T16:26:46;94574.34;;;15.96;27.22
43934;BME280;59081;42.706;23.306;2023-03-26T16:29:19;94517.00;;;15.53;27.27
43934;BME280;59081;42.706;23.306;2023-03-26T16:34:37;94490.97;;;15.30;27.61
43934;BME280;59081;42.706;23.306;2023-03-26T16:48:40;94461.03;;;14.99;28.49
43934;BME280;59081;42.706;23.306;2023-03-26T16:54:37;94581.50;;;15.83;28.37
43934;BME280;59081;42.706;23.306;2023-03-26T16:57:25;94579.50;;;15.83;28.60
43934;BME280;59081;42.706;23.306;2023-03-26T17:00:04;94481.88;;;14.94;28.81
43934;BME280;59081;42.706;23.306;2023-03-26T17:05:21;94589.34;;;15.64;28.31
43934;BME280;59081;42.706;23.306;2023-03-26T17:13:48;94574.91;;;15.45;28.62
43934;BME280;59081;42.706;23.306;2023-03-26T17:16:33;94515.38;;;14.76;28.99
43934;BME280;59081;42.706;23.306;2023-03-26T17:22:04;94513.41;;;15.12;29.39
43934;BME280;59081;42.706;23.306;2023-03-26T17:27:30;94603.63;;;15.57;29.62
43934;BME280;59081;42.706;23.306;2023-03-26T17:35:41;94600.75;;;15.51;29.60
43934;BME280;59081;42.706;23.306;2023-03-26T17:40:57;94452.03;;;14.40;30.06
43934;BME280;59081;42.706;23.306;2023-03-26T17:45:59;94530.31;;;14.64;31.10
43934;BME280;59081;42.706;23.306;2023-03-26T17:48:29;94451.59;;;14.12;31.62
43934;BME280;59081;42.706;23.306;2023-03-26T17:51:12;94595.88;;;14.96;31.83
43934;BME280;59081;42.706;23.306;2023-03-26T17:53:41;94566.75;;;14.72;32.35
43934;BME280;59081;42.706;23.306;2023-03-26T17:56:15;94559.56;;;14.65;32.38
43934;BME280;59081;42.706;23.306;2023-03-26T17:58:46;94479.28;;;14.12;32.58
43934;BME280;59081;42.706;23.306;2023-03-26T18:01:25;94471.63;;;14.07;32.90
43934;BME280;59081;42.706;23.306;2023-03-26T18:03:55;94525.94;;;14.43;33.11
43934;BME280;59081;42.706;23.306;2023-03-26T18:07:37;94592.25;;;14.90;33.60
43934;BME280;59081;42.706;23.306;2023-03-26T18:12:31;94586.22;;;14.92;34.17
43934;BME280;59081;42.706;23.306;2023-03-26T18:21:06;94556.69;;;14.45;34.86
43934;BME280;59081;42.706;23.306;2023-03-26T18:23:37;94448.94;;;13.49;35.11
43934;BME280;59081;42.706;23.306;2023-03-26T18:26:30;94504.69;;;13.33;36.65
43934;BME280;59081;42.706;23.306;2023-03-26T18:29:25;94562.09;;;13.47;37.25
43934;BME280;59081;42.706;23.306;2023-03-26T18:32:14;94464.09;;;12.82;36.94
43934;BME280;59081;42.706;23.306;2023-03-26T18:34:47;94516.22;;;13.32;36.95
43934;BME280;59081;42.706;23.306;2023-03-26T18:37:19;94425.03;;;12.66;37.80
43934;BME280;59081;42.706;23.306;2023-03-26T18:40:15;94569.06;;;13.57;38.04
43934;BME280;59081;42.706;23.306;2023-03-26T18:42:49;94433.44;;;12.71;37.52
43934;BME280;59081;42.706;23.306;2023-03-26T18:47:47;94517.81;;;13.47;37.48
43934;BME280;59081;42.706;23.306;2023-03-26T18:50:19;94427.19;;;12.95;37.36
43934;BME280;59081;42.706;23.306;2023-03-26T18:52:47;94416.16;;;12.85;37.71
43934;BME280;59081;42.706;23.306;2023-03-26T18:55:13;94423.16;;;12.72;38.15
43934;BME280;59081;42.706;23.306;2023-03-26T18:57:41;94454.84;;;12.62;38.92
43934;BME280;59081;42.706;23.306;2023-03-26T19:00:25;94508.19;;;12.77;39.65
43934;BME280;59081;42.706;23.306;2023-03-26T19:03:19;94543.03;;;13.16;39.42
43934;BME280;59081;42.706;23.306;2023-03-26T19:05:46;94468.91;;;12.73;39.28
43934;BME280;59081;42.706;23.306;2023-03-26T19:08:15;94483.09;;;12.89;39.54
43934;BME280;59081;42.706;23.306;2023-03-26T19:10:41;94499.59;;;13.08;39.30
43934;BME280;59081;42.706;23.306;2023-03-26T19:13:12;94527.00;;;13.30;39.25
43934;BME280;59081;42.706;23.306;2023-03-26T19:15:38;94441.28;;;12.73;39.29
43934;BME280;59081;42.706;23.306;2023-03-26T19:18:06;94429.16;;;12.70;39.17
43934;BME280;59081;42.706;23.306;2023-03-26T19:20:43;94457.59;;;12.95;39.12